sensor_id;sensor_type;location;lat;lon;timestamp;pressure;altitude;pressure_sealevel;temperature;humidity
49979;BME280;35869;50.990;6.962;2022-12-05T00:01:43;101298.84;;;3.63;100.00
49979;BME280;35869;50.990;6.962;2022-12-05T00:06:43;101295.47;;;3.60;100.00
49979;BME280;35869;50.990;6.962;2022-12-05T00:11:44;101299.75;;;3.56;100.00
49979;BME280;35869;50.990;6.962;2022-12-05T00:16:44;101298.94;;;3.50;100.00
49979;BME280;35869;50.990;6.962;2022-12-05T00:21:44;101301.63;;;3.30;100.00
49979;BME280;35869;50.990;6.962;2022-12-05T00:26:44;101304.94;;;3.50;100.00
49979;BME280;35869;50.990;6.962;2022-12-05T00:31:45;101312.63;;;3.55;100.00
49979;BME280;35869;50.990;6.962;2022-12-05T00:36:45;101311.72;;;3.57;100.00
49979;BME280;35869;50.990;6.962;2022-12-05T00:41:45;101308.34;;;3.52;100.00
49979;BME280;35869;50.990;6.962;2022-12-05T00:46:45;101310.06;;;3.53;100.00
49979;BME280;35869;50.990;6.962;2022-12-05T00:51:46;101301.50;;;3.51;100.00
49979;BME280;35869;50.990;6.962;2022-12-05T00:56:46;101301.50;;;3.51;100.00
49979;BME280;35869;50.990;6.962;2022-12-05T01:01:48;101304.94;;;3.48;100.00
49979;BME280;35869;50.990;6.962;2022-12-05T01:06:49;101304.06;;;3.54;100.00
49979;BME280;35869;50.990;6.962;2022-12-05T01:11:50;101304.06;;;3.53;100.00
49979;BME280;35869;50.990;6.962;2022-12-05T01:16:53;101304.03;;;3.56;100.00
49979;BME280;35869;50.990;6.962;2022-12-05T01:21:54;101312.63;;;3.58;100.00
49979;BME280;35869;50.990;6.962;2022-12-05T01:26:55;101316.03;;;3.58;100.00
49979;BME280;35869;50.990;6.962;2022-12-05T01:31:57;101319.47;;;3.51;100.00
49979;BME280;35869;50.990;6.962;2022-12-05T01:36:58;101328.06;;;3.50;100.00
49979;BME280;35869;50.990;6.962;2022-12-05T01:42:06;101327.19;;;3.53;100.00
49979;BME280;35869;50.990;6.962;2022-12-05T01:47:07;101323.75;;;3.55;100.00
49979;BME280;35869;50.990;6.962;2022-12-05T01:52:30;101326.38;;;3.46;100.00
49979;BME280;35869;50.990;6.962;2022-12-05T01:57:58;101328.03;;;3.52;100.00
49979;BME280;35869;50.990;6.962;2022-12-05T02:03:13;101334.94;;;3.43;100.00
49979;BME280;35869;50.990;6.962;2022-12-05T02:08:15;101334.97;;;3.42;100.00
49979;BME280;35869;50.990;6.962;2022-12-05T02:19:17;101320.41;;;3.39;100.00
49979;BME280;35869;50.990;6.962;2022-12-05T02:30:19;101329.75;;;3.51;100.00
49979;BME280;35869;50.990;6.962;2022-12-05T02:35:32;101336.66;;;3.46;100.00
49979;BME280;35869;50.990;6.962;2022-12-05T02:46:05;101344.34;;;3.52;100.00
49979;BME280;35869;50.990;6.962;2022-12-05T02:51:08;101337.50;;;3.48;100.00
49979;BME280;35869;50.990;6.962;2022-12-05T02:56:10;101338.34;;;3.53;100.00
49979;BME280;35869;50.990;6.962;2022-12-05T03:01:11;101349.47;;;3.49;100.00
49979;BME280;35869;50.990;6.962;2022-12-05T03:06:15;101352.88;;;3.56;100.00
49979;BME280;35869;50.990;6.962;2022-12-05T03:11:18;101358.94;;;3.39;100.00
49979;BME280;35869;50.990;6.962;2022-12-05T03:16:27;101365.75;;;3.48;100.00
49979;BME280;35869;50.990;6.962;2022-12-05T03:21:40;101364.06;;;3.44;100.00
49979;BME280;35869;50.990;6.962;2022-12-05T03:26:53;101368.34;;;3.45;100.00
49979;BME280;35869;50.990;6.962;2022-12-05T03:32:56;101372.69;;;3.35;100.00
49979;BME280;35869;50.990;6.962;2022-12-05T03:38:00;101376.13;;;3.34;100.00
49979;BME280;35869;50.990;6.962;2022-12-05T03:43:24;101366.72;;;3.26;100.00
49979;BME280;35869;50.990;6.962;2022-12-05T03:54:01;101371.84;;;3.29;100.00
49979;BME280;35869;50.990;6.962;2022-12-05T03:59:17;101366.72;;;3.29;100.00
49979;BME280;35869;50.990;6.962;2022-12-05T04:04:25;101371.84;;;3.26;100.00
49979;BME280;35869;50.990;6.962;2022-12-05T04:09:39;101374.44;;;3.23;100.00
49979;BME280;35869;50.990;6.962;2022-12-05T04:14:46;101382.16;;;3.13;100.00
49979;BME280;35869;50.990;6.962;2022-12-05T04:19:57;101387.31;;;3.10;100.00
49979;BME280;35869;50.990;6.962;2022-12-05T04:25:01;101383.91;;;3.07;100.00
49979;BME280;35869;50.990;6.962;2022-12-05T04:30:09;101388.19;;;3.03;100.00
49979;BME280;35869;50.990;6.962;2022-12-05T04:35:16;101389.91;;;3.00;100.00
49979;BME280;35869;50.990;6.962;2022-12-05T04:40:28;101396.75;;;2.96;100.00
49979;BME280;35869;50.990;6.962;2022-12-05T04:45:34;101395.06;;;2.89;100.00
49979;BME280;35869;50.990;6.962;2022-12-05T04:50:36;101391.63;;;2.91;100.00
49979;BME280;35869;50.990;6.962;2022-12-05T04:55:42;101396.81;;;2.82;100.00
49979;BME280;35869;50.990;6.962;2022-12-05T05:01:09;101399.34;;;2.75;100.00
49979;BME280;35869;50.990;6.962;2022-12-05T05:06:13;101401.94;;;2.68;100.00
49979;BME280;35869;50.990;6.962;2022-12-05T05:11:18;101395.94;;;2.63;100.00
49979;BME280;35869;50.990;6.962;2022-12-05T05:16:29;101394.25;;;2.59;100.00
49979;BME280;35869;50.990;6.962;2022-12-05T05:21:30;101404.53;;;2.53;100.00
49979;BME280;35869;50.990;6.962;2022-12-05T05:26:34;101413.06;;;2.55;100.00
49979;BME280;35869;50.990;6.962;2022-12-05T05:31:36;101413.06;;;2.48;100.00
49979;BME280;35869;50.990;6.962;2022-12-05T05:36:37;101421.63;;;2.42;100.00
49979;BME280;35869;50.990;6.962;2022-12-05T05:41:38;101419.06;;;2.40;100.00
49979;BME280;35869;50.990;6.962;2022-12-05T05:46:38;101425.03;;;2.38;100.00
49979;BME280;35869;50.990;6.962;2022-12-05T05:51:38;101427.59;;;2.38;100.00
49979;BME280;35869;50.990;6.962;2022-12-05T05:56:39;101425.91;;;2.42;100.00
49979;BME280;35869;50.990;6.962;2022-12-05T06:01:39;101422.50;;;2.41;100.00
49979;BME280;35869;50.990;6.962;2022-12-05T06:06:42;101429.28;;;2.34;100.00
49979;BME280;35869;50.990;6.962;2022-12-05T06:11:42;101434.44;;;2.27;100.00
49979;BME280;35869;50.990;6.962;2022-12-05T06:16:43;101432.75;;;2.29;100.00
49979;BME280;35869;50.990;6.962;2022-12-05T06:21:43;101436.13;;;2.26;100.00
49979;BME280;35869;50.990;6.962;2022-12-05T06:26:43;101444.69;;;2.24;100.00
49979;BME280;35869;50.990;6.962;2022-12-05T06:31:43;101443.84;;;2.19;100.00
49979;BME280;35869;50.990;6.962;2022-12-05T06:36:46;101448.09;;;2.17;100.00
49979;BME280;35869;50.990;6.962;2022-12-05T06:41:47;101447.22;;;2.14;100.00
49979;BME280;35869;50.990;6.962;2022-12-05T06:46:47;101446.38;;;2.12;100.00
49979;BME280;35869;50.990;6.962;2022-12-05T06:51:47;101456.66;;;2.17;100.00
49979;BME280;35869;50.990;6.962;2022-12-05T06:56:48;101461.75;;;2.08;100.00
49979;BME280;35869;50.990;6.962;2022-12-05T07:01:48;101462.59;;;2.02;100.00
49979;BME280;35869;50.990;6.962;2022-12-05T07:06:49;101467.69;;;1.99;100.00
49979;BME280;35869;50.990;6.962;2022-12-05T07:11:50;101473.72;;;2.00;100.00
49979;BME280;35869;50.990;6.962;2022-12-05T07:16:50;101477.13;;;2.02;100.00
49979;BME280;35869;50.990;6.962;2022-12-05T07:21:50;101493.31;;;1.93;100.00
49979;BME280;35869;50.990;6.962;2022-12-05T07:26:50;101494.16;;;1.91;100.00
49979;BME280;35869;50.990;6.962;2022-12-05T07:31:52;101496.78;;;2.01;100.00
49979;BME280;35869;50.990;6.962;2022-12-05T07:36:53;101499.34;;;2.09;100.00
49979;BME280;35869;50.990;6.962;2022-12-05T07:41:53;101503.59;;;1.95;100.00
49979;BME280;35869;50.990;6.962;2022-12-05T07:46:53;101512.13;;;1.98;100.00
49979;BME280;35869;50.990;6.962;2022-12-05T07:51:53;101510.44;;;1.97;100.00
49979;BME280;35869;50.990;6.962;2022-12-05T07:56:53;101514.69;;;1.95;100.00
49979;BME280;35869;50.990;6.962;2022-12-05T08:01:54;101517.25;;;1.92;100.00
49979;BME280;35869;50.990;6.962;2022-12-05T08:06:54;101527.50;;;1.89;100.00
49979;BME280;35869;50.990;6.962;2022-12-05T08:11:54;101524.03;;;1.87;100.00
49979;BME280;35869;50.990;6.962;2022-12-05T08:16:54;101530.91;;;1.88;100.00
49979;BME280;35869;50.990;6.962;2022-12-05T08:21:55;101526.63;;;1.92;100.00
49979;BME280;35869;50.990;6.962;2022-12-05T08:26:55;101532.63;;;1.89;100.00
49979;BME280;35869;50.990;6.962;2022-12-05T08:31:55;101539.44;;;1.93;100.00
49979;BME280;35869;50.990;6.962;2022-12-05T08:36:55;101549.72;;;1.90;100.00
49979;BME280;35869;50.990;6.962;2022-12-05T08:41:56;101564.22;;;1.91;100.00
49979;BME280;35869;50.990;6.962;2022-12-05T08:46:56;101564.25;;;1.88;100.00
49979;BME280;35869;50.990;6.962;2022-12-05T08:51:56;101566.81;;;1.94;100.00
49979;BME280;35869;50.990;6.962;2022-12-05T08:56:56;101563.44;;;2.03;100.00
49979;BME280;35869;50.990;6.962;2022-12-05T09:01:56;101561.69;;;1.96;100.00
49979;BME280;35869;50.990;6.962;2022-12-05T09:06:57;101567.72;;;2.02;100.00
49979;BME280;35869;50.990;6.962;2022-12-05T09:12:00;101571.16;;;2.06;100.00
49979;BME280;35869;50.990;6.962;2022-12-05T09:17:00;101571.16;;;2.06;100.00
49979;BME280;35869;50.990;6.962;2022-12-05T09:22:00;101577.16;;;2.12;100.00
49979;BME280;35869;50.990;6.962;2022-12-05T09:27:01;101573.75;;;2.12;100.00
49979;BME280;35869;50.990;6.962;2022-12-05T09:32:01;101576.34;;;2.18;100.00
49979;BME280;35869;50.990;6.962;2022-12-05T09:37:03;101586.56;;;2.13;100.00
49979;BME280;35869;50.990;6.962;2022-12-05T09:52:46;101579.75;;;2.17;100.00
49979;BME280;35869;50.990;6.962;2022-12-05T09:57:55;101573.78;;;2.24;100.00
49979;BME280;35869;50.990;6.962;2022-12-05T10:03:02;101578.91;;;2.26;100.00
49979;BME280;35869;50.990;6.962;2022-12-05T10:13:39;101583.22;;;2.31;100.00
49979;BME280;35869;50.990;6.962;2022-12-05T10:18:46;101578.09;;;2.36;100.00
49979;BME280;35869;50.990;6.962;2022-12-05T10:23:56;101573.81;;;2.38;100.00
49979;BME280;35869;50.990;6.962;2022-12-05T10:34:32;101584.09;;;2.44;100.00
49979;BME280;35869;50.990;6.962;2022-12-05T10:39:34;101590.09;;;2.46;100.00
49979;BME280;35869;50.990;6.962;2022-12-05T10:44:34;101586.72;;;2.53;100.00
49979;BME280;35869;50.990;6.962;2022-12-05T10:49:36;101585.81;;;2.51;100.00
49979;BME280;35869;50.990;6.962;2022-12-05T10:54:43;101583.28;;;2.60;100.00
49979;BME280;35869;50.990;6.962;2022-12-05T10:59:46;101582.44;;;2.58;100.00
49979;BME280;35869;50.990;6.962;2022-12-05T11:04:48;101583.31;;;2.59;100.00
49979;BME280;35869;50.990;6.962;2022-12-05T11:09:48;101575.59;;;2.66;100.00
49979;BME280;35869;50.990;6.962;2022-12-05T11:25:36;101568.78;;;2.81;100.00
49979;BME280;35869;50.990;6.962;2022-12-05T11:30:36;101575.63;;;2.79;100.00
49979;BME280;35869;50.990;6.962;2022-12-05T11:35:36;101583.34;;;2.76;100.00
49979;BME280;35869;50.990;6.962;2022-12-05T11:46:05;101576.47;;;2.87;100.00
49979;BME280;35869;50.990;6.962;2022-12-05T11:56:36;101561.97;;;2.93;100.00
49979;BME280;35869;50.990;6.962;2022-12-05T12:01:45;101563.66;;;2.91;100.00
49979;BME280;35869;50.990;6.962;2022-12-05T12:07:05;101564.50;;;2.92;100.00
49979;BME280;35869;50.990;6.962;2022-12-05T12:12:31;101567.09;;;2.93;100.00
49979;BME280;35869;50.990;6.962;2022-12-05T12:28:14;101565.38;;;2.97;100.00
49979;BME280;35869;50.990;6.962;2022-12-05T12:33:33;101565.38;;;3.00;100.00
49979;BME280;35869;50.990;6.962;2022-12-05T12:38:50;101558.53;;;3.07;100.00
49979;BME280;35869;50.990;6.962;2022-12-05T13:00:03;101562.81;;;3.12;100.00
49979;BME280;35869;50.990;6.962;2022-12-05T13:05:31;101555.09;;;3.15;100.00
49979;BME280;35869;50.990;6.962;2022-12-05T13:10:37;101553.38;;;3.16;100.00
49979;BME280;35869;50.990;6.962;2022-12-05T13:15:44;101558.53;;;3.17;100.00
49979;BME280;35869;50.990;6.962;2022-12-05T13:20:48;101560.25;;;3.18;100.00
49979;BME280;35869;50.990;6.962;2022-12-05T13:25:52;101555.09;;;3.14;100.00
49979;BME280;35869;50.990;6.962;2022-12-05T13:42:29;101564.50;;;3.16;100.00
49979;BME280;35869;50.990;6.962;2022-12-05T13:58:59;101579.91;;;3.16;100.00
49979;BME280;35869;50.990;6.962;2022-12-05T14:33:14;101588.47;;;2.99;100.00
49979;BME280;35869;50.990;6.962;2022-12-05T15:34:14;101616.72;;;2.82;100.00
49979;BME280;35869;50.990;6.962;2022-12-05T16:02:10;101638.94;;;2.74;100.00
49979;BME280;35869;50.990;6.962;2022-12-05T16:13:34;101640.63;;;2.64;100.00
49979;BME280;35869;50.990;6.962;2022-12-05T16:18:46;101639.78;;;2.65;100.00
49979;BME280;35869;50.990;6.962;2022-12-05T16:23:58;101644.88;;;2.60;100.00
49979;BME280;35869;50.990;6.962;2022-12-05T16:34:32;101661.97;;;2.57;100.00
49979;BME280;35869;50.990;6.962;2022-12-05T16:39:43;101665.41;;;2.56;100.00
49979;BME280;35869;50.990;6.962;2022-12-05T17:01:58;101679.03;;;2.44;100.00
49979;BME280;35869;50.990;6.962;2022-12-05T17:13:23;101676.41;;;2.32;100.00
49979;BME280;35869;50.990;6.962;2022-12-05T17:18:30;101678.13;;;2.30;100.00
49979;BME280;35869;50.990;6.962;2022-12-05T18:53:31;101710.31;;;1.82;100.00
49979;BME280;35869;50.990;6.962;2022-12-05T18:58:35;101720.56;;;1.82;100.00
49979;BME280;35869;50.990;6.962;2022-12-05T19:03:39;101722.22;;;1.77;100.00
49979;BME280;35869;50.990;6.962;2022-12-05T19:08:40;101712.91;;;1.91;100.00
49979;BME280;35869;50.990;6.962;2022-12-05T19:13:41;101717.09;;;1.80;100.00
49979;BME280;35869;50.990;6.962;2022-12-05T19:18:42;101712.81;;;1.77;100.00
49979;BME280;35869;50.990;6.962;2022-12-05T19:23:42;101719.66;;;1.80;100.00
49979;BME280;35869;50.990;6.962;2022-12-05T19:28:42;101721.31;;;1.73;100.00
49979;BME280;35869;50.990;6.962;2022-12-05T19:33:48;101729.09;;;1.82;100.00
49979;BME280;35869;50.990;6.962;2022-12-05T19:38:50;101733.34;;;1.80;100.00
49979;BME280;35869;50.990;6.962;2022-12-05T19:43:51;101736.69;;;1.73;100.00
49979;BME280;35869;50.990;6.962;2022-12-05T19:48:54;101737.59;;;1.80;100.00
49979;BME280;35869;50.990;6.962;2022-12-05T19:53:57;101739.31;;;1.78;100.00
49979;BME280;35869;50.990;6.962;2022-12-05T20:04:41;101737.69;;;1.89;100.00
49979;BME280;35869;50.990;6.962;2022-12-05T20:09:56;101726.50;;;1.79;100.00
49979;BME280;35869;50.990;6.962;2022-12-05T20:15:04;101723.94;;;1.78;100.00
49979;BME280;35869;50.990;6.962;2022-12-05T20:25:51;101732.53;;;1.86;100.00
49979;BME280;35869;50.990;6.962;2022-12-05T20:31:22;101726.50;;;1.78;100.00
49979;BME280;35869;50.990;6.962;2022-12-05T20:36:32;101728.22;;;1.80;100.00
49979;BME280;35869;50.990;6.962;2022-12-05T20:41:33;101729.88;;;1.74;100.00
49979;BME280;35869;50.990;6.962;2022-12-05T20:46:39;101725.59;;;1.76;100.00
49979;BME280;35869;50.990;6.962;2022-12-05T20:52:00;101728.19;;;1.79;100.00
49979;BME280;35869;50.990;6.962;2022-12-05T20:57:21;101724.84;;;1.87;100.00
49979;BME280;35869;50.990;6.962;2022-12-05T21:02:21;101729.09;;;1.84;100.00
49979;BME280;35869;50.990;6.962;2022-12-05T21:07:22;101729.06;;;1.81;100.00
49979;BME280;35869;50.990;6.962;2022-12-05T21:12:22;101726.50;;;1.78;100.00
49979;BME280;35869;50.990;6.962;2022-12-05T21:17:28;101724.81;;;1.83;100.00
49979;BME280;35869;50.990;6.962;2022-12-05T21:22:37;101724.81;;;1.83;100.00
49979;BME280;35869;50.990;6.962;2022-12-05T21:38:46;101719.66;;;1.78;100.00
49979;BME280;35869;50.990;6.962;2022-12-05T21:43:46;101711.97;;;1.81;100.00
49979;BME280;35869;50.990;6.962;2022-12-05T21:49:01;101711.09;;;1.76;100.00
49979;BME280;35869;50.990;6.962;2022-12-05T21:54:18;101714.50;;;1.75;100.00
49979;BME280;35869;50.990;6.962;2022-12-05T21:59:24;101721.38;;;1.79;100.00
49979;BME280;35869;50.990;6.962;2022-12-05T22:04:25;101721.41;;;1.84;100.00
49979;BME280;35869;50.990;6.962;2022-12-05T22:09:25;101712.88;;;1.85;100.00
49979;BME280;35869;50.990;6.962;2022-12-05T22:14:28;101726.53;;;1.82;100.00
49979;BME280;35869;50.990;6.962;2022-12-05T22:19:28;101722.28;;;1.86;100.00
49979;BME280;35869;50.990;6.962;2022-12-05T22:30:55;101710.31;;;1.85;100.00
49979;BME280;35869;50.990;6.962;2022-12-05T22:36:25;101717.16;;;1.86;100.00
49979;BME280;35869;50.990;6.962;2022-12-05T22:41:41;101720.59;;;1.91;100.00
49979;BME280;35869;50.990;6.962;2022-12-05T22:52:44;101714.56;;;1.84;100.00
49979;BME280;35869;50.990;6.962;2022-12-05T23:03:11;101714.66;;;1.98;100.00
49979;BME280;35869;50.990;6.962;2022-12-05T23:08:14;101714.69;;;2.03;100.00
49979;BME280;35869;50.990;6.962;2022-12-05T23:13:29;101702.69;;;1.97;100.00
49979;BME280;35869;50.990;6.962;2022-12-05T23:18:57;101698.44;;;1.96;100.00
49979;BME280;35869;50.990;6.962;2022-12-05T23:24:11;101689.88;;;1.94;100.00
49979;BME280;35869;50.990;6.962;2022-12-05T23:29:27;101693.31;;;1.99;100.00
49979;BME280;35869;50.990;6.962;2022-12-05T23:45:47;101681.41;;;2.06;100.00
49979;BME280;35869;50.990;6.962;2022-12-05T23:50:58;101675.44;;;2.07;100.00
